Time;durP1;ratioP1;P1;durP2;ratioP2;P2;SDS_P1;SDS_P2;PMS_P1;PMS_P2;Temp;Humidity;BMP_temperature;BMP_pressure;BME280_temperature;BME280_humidity;BME280_pressure;Samples;Min_cycle;Max_cycle;Signal;HPM_P1;HPM_P2
2022/09/05 00:02:00;;;;;;;5.65;2.97;;;20.50;99.90;;;;;;4915791;29;20035;-81
2022/09/05 00:04:32;;;;;;;7.43;3.03;;;20.50;99.90;;;;;;4915928;29;20413;-81
2022/09/05 00:07:09;;;;;;;4.30;2.55;;;20.50;99.90;;;;;;4915715;29;20036;-81
2022/09/05 00:10:09;;;;;;;6.90;3.10;;;20.50;99.90;;;;;;4909875;29;20025;-81
2022/09/05 00:12:35;;;;;;;11.00;2.75;;;20.50;99.90;;;;;;4899027;29;20024;-82
2022/09/05 00:15:07;;;;;;;9.48;3.80;;;20.40;99.90;;;;;;4915615;29;20508;-81
2022/09/05 00:17:53;;;;;;;5.88;3.00;;;20.40;99.90;;;;;;4895117;29;20043;-81
2022/09/05 00:20:35;;;;;;;5.15;2.97;;;20.30;99.90;;;;;;4914122;29;20039;-81
2022/09/05 00:23:37;;;;;;;6.85;2.72;;;20.30;99.90;;;;;;4915617;29;20040;-81
2022/09/05 00:26:16;;;;;;;12.43;3.22;;;20.20;99.90;;;;;;4908919;29;20410;-81
2022/09/05 00:29:09;;;;;;;8.27;3.25;;;20.30;99.90;;;;;;4911735;29;20545;-81
2022/09/05 00:31:59;;;;;;;7.55;3.28;;;20.20;99.90;;;;;;4915543;29;20035;-81
2022/09/05 00:34:49;;;;;;;5.20;2.80;;;20.20;99.90;;;;;;4910681;29;20091;-81
2022/09/05 00:37:34;;;;;;;6.43;2.90;;;20.20;99.90;;;;;;4893147;29;20024;-82
2022/09/05 00:40:18;;;;;;;9.23;3.00;;;20.30;99.90;;;;;;4913982;29;20520;-81
2022/09/05 00:42:45;;;;;;;7.00;2.97;;;20.30;99.90;;;;;;4915124;29;20051;-82
2022/09/05 00:45:24;;;;;;;7.85;3.22;;;20.30;99.90;;;;;;4915009;29;20036;-81
2022/09/05 00:47:56;;;;;;;8.88;2.92;;;20.30;99.90;;;;;;4915061;29;20024;-81
2022/09/05 00:50:36;;;;;;;7.57;3.50;;;20.30;99.90;;;;;;4915193;29;20027;-81
2022/09/05 00:53:20;;;;;;;4.75;2.97;;;20.30;99.90;;;;;;4915181;29;20020;-81
2022/09/05 00:56:04;;;;;;;;;;;20.30;99.90;;;;;;4915373;29;20031;-82
2022/09/05 00:59:00;;;;;;;8.63;2.88;;;20.30;99.90;;;;;;4915120;29;19910;-80
2022/09/05 01:01:37;;;;;;;5.47;2.95;;;20.30;99.90;;;;;;4914788;29;20039;-81
2022/09/05 01:04:13;;;;;;;7.55;2.92;;;20.30;99.90;;;;;;4914886;29;20031;-81
2022/09/05 01:07:20;;;;;;;5.22;2.88;;;20.30;99.90;;;;;;4914621;29;20028;-81
2022/09/05 01:10:19;;;;;;;5.13;2.50;;;20.30;99.90;;;;;;4914005;29;20131;-81
2022/09/05 01:12:47;;;;;;;5.15;2.78;;;20.30;99.90;;;;;;4914655;29;20032;-81
2022/09/05 01:15:27;;;;;;;4.35;2.85;;;20.20;99.90;;;;;;4914538;29;20569;-81
2022/09/05 01:17:55;;;;;;;6.57;3.10;;;20.20;99.90;;;;;;4908875;29;20521;-81
2022/09/05 01:20:27;;;;;;;5.15;2.22;;;20.20;99.90;;;;;;4891257;29;20169;-81
2022/09/05 01:23:01;;;;;;;6.38;2.33;;;20.20;99.90;;;;;;4914629;29;20111;-81
2022/09/05 01:26:01;;;;;;;8.48;2.70;;;20.30;99.90;;;;;;4914314;29;20024;-81
2022/09/05 01:29:06;;;;;;;7.95;2.88;;;20.30;99.90;;;;;;4914363;29;20549;-81
2022/09/05 01:31:50;;;;;;;5.03;2.75;;;20.30;99.90;;;;;;4909902;29;20043;-81
2022/09/05 01:34:16;;;;;;;;;;;20.40;99.90;;;;;;4914904;29;20052;-81
2022/09/05 01:36:54;;;;;;;9.00;2.92;;;20.30;99.90;;;;;;4913381;29;19966;-81
2022/09/05 01:39:35;;;;;;;7.57;2.83;;;20.40;99.90;;;;;;4914274;29;20424;-81
2022/09/05 01:42:21;;;;;;;6.88;2.70;;;20.40;99.90;;;;;;4914125;29;20063;-83
2022/09/05 01:45:03;;;;;;;5.18;2.50;;;20.40;99.90;;;;;;4912832;29;20035;-81
2022/09/05 01:47:48;;;;;;;4.32;2.58;;;20.40;99.90;;;;;;4913900;29;20028;-81
2022/09/05 01:50:44;;;;;;;11.25;3.05;;;20.40;99.90;;;;;;4913911;29;20503;-81
2022/09/05 01:53:20;;;;;;;7.35;2.78;;;20.40;99.90;;;;;;4913896;29;20521;-81
2022/09/05 01:56:10;;;;;;;5.57;2.58;;;20.30;99.90;;;;;;4896321;29;20358;-81
2022/09/05 01:58:48;;;;;;;8.18;3.15;;;20.30;99.90;;;;;;4911566;29;20032;-82
2022/09/05 02:01:37;;;;;;;8.20;3.20;;;20.30;99.90;;;;;;4913712;29;20620;-81
2022/09/05 02:04:18;;;;;;;8.45;2.70;;;20.30;99.90;;;;;;4908920;29;20020;-82
2022/09/05 02:06:44;;;;;;;6.65;3.10;;;20.20;99.90;;;;;;4913606;29;20032;-81
2022/09/05 02:09:18;;;;;;;6.50;2.90;;;20.20;99.90;;;;;;4913795;29;20032;-81
2022/09/05 02:11:50;;;;;;;6.75;3.00;;;20.20;99.90;;;;;;4913419;29;20133;-81
2022/09/05 02:14:53;;;;;;;7.15;3.20;;;20.10;99.90;;;;;;4913714;29;20028;-81
2022/09/05 02:17:39;;;;;;;6.38;3.30;;;20.20;99.90;;;;;;4909626;29;20028;-81
2022/09/05 02:20:29;;;;;;;6.10;3.10;;;20.20;99.90;;;;;;4913443;29;20036;-81
2022/09/05 02:23:27;;;;;;;9.55;3.25;;;20.20;99.90;;;;;;4906986;29;20519;-81
2022/09/05 02:26:16;;;;;;;9.18;3.40;;;20.20;99.90;;;;;;4899243;29;20036;-81
2022/09/05 02:28:47;;;;;;;9.45;3.58;;;20.30;99.90;;;;;;4913015;29;20530;-81
2022/09/05 02:31:23;;;;;;;8.10;3.30;;;20.30;99.90;;;;;;4913414;29;20039;-81
2022/09/05 02:34:14;;;;;;;8.30;3.45;;;20.30;99.90;;;;;;4913228;29;20042;-81
2022/09/05 02:36:47;;;;;;;5.70;3.08;;;20.20;99.90;;;;;;4913458;29;20038;-81
2022/09/05 02:39:39;;;;;;;7.75;3.70;;;20.20;99.90;;;;;;4913232;29;20030;-81
2022/09/05 02:42:33;;;;;;;5.53;3.08;;;20.30;99.90;;;;;;4908634;29;20040;-82
2022/09/05 02:45:25;;;;;;;8.30;3.40;;;20.30;99.90;;;;;;4907225;29;20024;-82
2022/09/05 02:47:56;;;;;;;9.85;3.80;;;20.30;99.90;;;;;;4915000;29;20084;-81
2022/09/05 02:50:53;;;;;;;8.65;3.40;;;20.20;99.90;;;;;;4917181;29;20076;-81
2022/09/05 02:53:21;;;;;;;6.15;3.22;;;20.20;99.90;;;;;;4912109;29;20388;-81
2022/09/05 02:56:18;;;;;;;7.20;3.72;;;20.20;99.90;;;;;;4899871;29;20477;-81
2022/09/05 02:59:13;;;;;;;9.32;4.00;;;20.20;99.90;;;;;;4915732;29;20035;-81
2022/09/05 03:01:38;;;;;;;6.95;4.22;;;20.20;99.90;;;;;;4895627;29;20047;-81
2022/09/05 03:04:13;;;;;;;9.50;5.00;;;20.10;99.90;;;;;;4917211;29;20028;-81
2022/09/05 03:07:06;;;;;;;8.27;4.60;;;20.10;99.90;;;;;;4916859;29;20035;-81
2022/09/05 03:09:44;;;;;;;7.93;3.90;;;20.00;99.90;;;;;;4916817;29;20036;-81
2022/09/05 03:12:21;;;;;;;6.63;3.60;;;20.00;99.90;;;;;;4916761;29;20044;-82
2022/09/05 03:15:32;;;;;;;6.18;3.30;;;19.90;99.90;;;;;;4916724;29;20032;-81
2022/09/05 03:18:15;;;;;;;6.68;3.50;;;19.80;99.90;;;;;;4886888;29;20040;-81
2022/09/05 03:21:18;;;;;;;9.85;3.15;;;19.90;99.90;;;;;;4913164;29;20078;-81
2022/09/05 03:24:08;;;;;;;7.32;2.80;;;19.90;99.90;;;;;;4916533;29;20401;-81
2022/09/05 03:27:06;;;;;;;6.28;2.60;;;19.90;99.90;;;;;;4897469;29;20059;-81
2022/09/05 03:29:59;;;;;;;6.18;2.92;;;19.90;99.90;;;;;;4897771;29;20039;-82
2022/09/05 03:32:47;;;;;;;6.10;3.05;;;19.90;99.90;;;;;;4916323;29;20084;-82
2022/09/05 03:35:40;;;;;;;5.75;2.63;;;20.00;99.90;;;;;;4916482;29;20028;-81
2022/09/05 03:38:24;;;;;;;4.88;2.83;;;19.90;99.90;;;;;;4914086;29;20508;-81
2022/09/05 03:41:15;;;;;;;6.93;3.13;;;19.90;99.90;;;;;;4916233;29;20499;-81
2022/09/05 03:44:08;;;;;;;4.13;3.10;;;19.90;99.90;;;;;;4912734;29;20040;-81
2022/09/05 03:46:45;;;;;;;6.65;2.85;;;19.90;99.90;;;;;;4899314;29;20032;-81
2022/09/05 03:49:33;;;;;;;4.72;2.97;;;19.90;99.90;;;;;;4916186;29;20397;-81
2022/09/05 03:52:36;;;;;;;8.93;2.92;;;19.80;99.90;;;;;;4914143;29;20087;-81
2022/09/05 03:55:08;;;;;;;4.63;3.00;;;19.80;99.90;;;;;;4892026;29;20032;-81
2022/09/05 03:58:04;;;;;;;7.40;3.88;;;19.80;99.90;;;;;;4914841;29;20032;-81
2022/09/05 04:00:32;;;;;;;7.13;3.53;;;19.80;99.90;;;;;;4914936;29;20152;-81
2022/09/05 04:03:09;;;;;;;6.50;3.47;;;19.80;99.90;;;;;;4915894;29;20032;-81
2022/09/05 04:05:41;;;;;;;7.32;3.80;;;19.80;99.90;;;;;;4910052;29;20033;-81
2022/09/05 04:08:19;;;;;;;5.10;3.25;;;19.80;99.90;;;;;;4909399;29;20024;-81
2022/09/05 04:11:02;;;;;;;5.32;3.38;;;19.70;99.90;;;;;;4915775;29;20028;-81
2022/09/05 04:13:36;;;;;;;6.03;3.40;;;19.70;99.90;;;;;;4915614;29;20031;-81
2022/09/05 04:16:12;;;;;;;7.72;3.40;;;19.70;99.90;;;;;;4915581;29;20504;-81
2022/09/05 04:19:16;;;;;;;6.25;3.90;;;19.60;99.90;;;;;;4915724;29;20397;-81
2022/09/05 04:21:48;;;;;;;8.52;3.78;;;19.60;99.90;;;;;;4913530;29;20036;-81
2022/09/05 04:24:24;;;;;;;6.57;3.72;;;19.70;99.90;;;;;;4915593;29;20036;-81
2022/09/05 04:27:15;;;;;;;7.78;4.03;;;19.70;99.90;;;;;;4916805;29;20059;-81
2022/09/05 04:30:00;;;;;;;6.53;3.83;;;19.60;99.90;;;;;;4911521;29;20037;-80
2022/09/05 04:32:50;;;;;;;7.30;4.22;;;19.60;99.90;;;;;;4916453;29;20087;-80
2022/09/05 04:35:21;;;;;;;8.15;4.00;;;19.60;99.90;;;;;;4916772;29;20024;-81
2022/09/05 04:37:50;;;;;;;7.55;3.75;;;19.60;99.90;;;;;;4916762;29;20509;-81
2022/09/05 04:40:57;;;;;;;5.88;4.30;;;19.60;99.90;;;;;;4915213;29;20524;-81
2022/09/05 04:43:38;;;;;;;6.25;3.80;;;19.60;99.90;;;;;;4908855;29;20050;-81
2022/09/05 04:46:35;;;;;;;6.22;4.20;;;19.50;99.90;;;;;;4915054;29;20048;-81
2022/09/05 04:49:08;;;;;;;10.88;4.60;;;19.50;99.90;;;;;;4915007;29;20032;-81
2022/09/05 04:51:58;;;;;;;8.70;4.28;;;19.50;99.90;;;;;;4916346;29;20215;-81
2022/09/05 04:54:47;;;;;;;9.35;4.30;;;19.50;99.90;;;;;;4926312;29;20331;-81
2022/09/05 04:57:32;;;;;;;9.85;4.50;;;19.50;99.90;;;;;;4926465;29;20249;-81
2022/09/05 05:00:14;;;;;;;7.63;4.32;;;19.50;99.90;;;;;;4926346;29;20015;-81
2022/09/05 05:02:50;;;;;;;4.78;3.67;;;19.50;99.90;;;;;;4907227;29;20063;-81
2022/09/05 05:05:24;;;;;;;8.10;4.35;;;19.50;99.90;;;;;;4926099;29;20024;-81
2022/09/05 05:08:04;;;;;;;8.15;4.57;;;19.40;99.90;;;;;;4926099;29;20026;-81
2022/09/05 05:10:41;;;;;;;6.65;4.00;;;19.40;99.90;;;;;;4919535;29;20028;-81
2022/09/05 05:13:10;;;;;;;10.63;4.50;;;19.30;99.90;;;;;;4909410;29;20036;-81
2022/09/05 05:15:50;;;;;;;6.78;4.28;;;19.30;99.90;;;;;;4909733;29;20410;-81
2022/09/05 05:18:27;;;;;;;5.80;4.40;;;19.30;99.90;;;;;;4914659;29;20028;-79
2022/09/05 05:21:04;;;;;;;6.60;4.40;;;19.30;99.90;;;;;;4917160;29;20256;-79
2022/09/05 05:23:32;;;;;;;8.23;4.68;;;19.20;99.90;;;;;;4914378;29;20028;-78
2022/09/05 05:26:02;;;;;;;7.88;4.50;;;19.20;99.90;;;;;;4914060;29;20027;-79
2022/09/05 05:28:46;;;;;;;10.75;4.50;;;19.20;99.90;;;;;;4914105;29;20036;-78
2022/09/05 05:31:27;;;;;;;6.47;4.57;;;19.20;99.90;;;;;;4909294;29;20016;-78
2022/09/05 05:33:56;;;;;;;9.15;4.75;;;19.20;99.90;;;;;;4914601;29;20024;-78
2022/09/05 05:36:31;;;;;;;6.65;4.68;;;19.20;99.90;;;;;;4914322;29;20035;-79
2022/09/05 05:39:09;;;;;;;7.18;4.55;;;19.20;99.90;;;;;;4914137;29;20486;-79
2022/09/05 05:41:47;;;;;;;10.65;5.20;;;19.20;99.90;;;;;;4914020;29;20104;-79
2022/09/05 05:44:34;;;;;;;8.35;4.65;;;19.30;99.90;;;;;;4914023;29;20416;-79
2022/09/05 05:47:05;;;;;;;6.07;4.63;;;19.30;99.90;;;;;;4910049;29;20036;-78
2022/09/05 05:49:49;;;;;;;6.18;4.55;;;19.40;99.90;;;;;;4913984;29;20059;-79
2022/09/05 05:52:32;;;;;;;8.30;4.40;;;19.50;99.90;;;;;;4914048;29;20032;-78
2022/09/05 05:55:18;;;;;;;8.15;5.20;;;19.50;99.90;;;;;;4908084;29;20225;-79
2022/09/05 05:58:02;;;;;;;12.02;4.90;;;19.50;99.90;;;;;;4913156;29;20036;-79
2022/09/05 06:00:46;;;;;;;7.53;4.75;;;19.50;99.90;;;;;;4913847;29;20556;-78
2022/09/05 06:03:21;;;;;;;10.23;4.72;;;19.60;99.90;;;;;;4913663;29;20402;-79
2022/09/05 06:06:21;;;;;;;8.23;4.70;;;19.60;99.90;;;;;;4913925;29;20084;-78
2022/09/05 06:08:47;;;;;;;7.30;4.35;;;19.60;99.90;;;;;;4913528;29;20016;-79
2022/09/05 06:11:52;;;;;;;8.65;4.32;;;19.60;99.90;;;;;;4913403;29;20075;-79
2022/09/05 06:14:52;;;;;;;7.32;4.50;;;19.70;99.90;;;;;;4913773;29;20084;-79
2022/09/05 06:17:36;;;;;;;8.63;4.80;;;19.80;99.90;;;;;;4908777;29;20111;-79
2022/09/05 06:20:30;;;;;;;10.05;4.68;;;19.90;99.90;;;;;;4913422;29;20473;-78
2022/09/05 06:23:28;;;;;;;9.38;4.93;;;20.00;99.90;;;;;;4898628;29;20048;-79
2022/09/05 06:26:14;;;;;;;7.43;4.32;;;20.10;99.90;;;;;;4860941;29;20091;-79
2022/09/05 06:28:51;;;;;;;8.98;4.25;;;20.10;99.90;;;;;;4913511;29;20024;-78
2022/09/05 06:31:48;;;;;;;9.15;4.88;;;20.20;99.90;;;;;;4913561;29;20035;-78
2022/09/05 06:34:51;;;;;;;5.50;4.13;;;20.30;99.90;;;;;;4895534;29;20259;-78
2022/09/05 06:37:51;;;;;;;9.45;4.30;;;20.40;99.90;;;;;;4913594;29;20028;-79
2022/09/05 06:40:44;;;;;;;8.32;4.30;;;20.40;99.90;;;;;;4908187;29;20032;-78
2022/09/05 06:43:44;;;;;;;10.25;4.00;;;20.40;99.90;;;;;;4911538;29;20058;-79
2022/09/05 06:46:18;;;;;;;9.43;4.03;;;20.40;99.90;;;;;;4913456;29;20028;-78
2022/09/05 06:48:55;;;;;;;7.15;3.88;;;20.50;99.90;;;;;;4913075;29;20028;-78
2022/09/05 06:51:58;;;;;;;6.93;3.97;;;20.50;99.90;;;;;;4913193;29;20123;-79
2022/09/05 06:54:52;;;;;;;6.85;3.55;;;20.60;99.90;;;;;;4912903;29;20031;-78
2022/09/05 06:57:36;;;;;;;6.63;3.65;;;20.50;99.90;;;;;;4913122;29;20036;-79
2022/09/05 07:00:14;;;;;;;8.80;4.17;;;20.60;99.90;;;;;;4913017;29;20091;-79
2022/09/05 07:03:00;;;;;;;6.03;4.00;;;20.70;99.90;;;;;;4913528;29;20238;-79
2022/09/05 07:05:25;;;;;;;5.88;3.28;;;20.70;99.90;;;;;;4911881;29;20076;-79
2022/09/05 07:07:56;;;;;;;8.02;3.67;;;20.80;99.90;;;;;;4913134;29;20036;-79
2022/09/05 07:10:35;;;;;;;8.93;3.95;;;20.90;99.90;;;;;;4912925;29;20056;-78
2022/09/05 07:13:10;;;;;;;10.60;4.25;;;20.90;99.90;;;;;;4913176;29;20054;-78
2022/09/05 07:15:38;;;;;;;;;;;20.90;99.90;;;;;;4913559;29;20281;-79
2022/09/05 07:18:24;;;;;;;7.00;3.72;;;21.00;99.90;;;;;;4913079;29;19907;-78
2022/09/05 07:21:15;;;;;;;9.57;3.65;;;21.10;99.90;;;;;;4910098;29;20032;-79
2022/09/05 07:24:03;;;;;;;7.95;2.80;;;21.30;99.90;;;;;;4911689;29;20149;-78
2022/09/05 07:26:33;;;;;;;5.97;2.97;;;21.30;99.90;;;;;;4908702;29;20401;-78
2022/09/05 07:29:03;;;;;;;6.22;3.33;;;21.50;99.90;;;;;;4912865;29;20020;-78
2022/09/05 07:31:32;;;;;;;5.60;3.28;;;21.60;99.90;;;;;;4912792;29;20043;-78
2022/09/05 07:34:19;;;;;;;6.40;2.60;;;21.80;99.90;;;;;;4914644;29;20027;-78
2022/09/05 07:36:47;;;;;;;5.20;3.08;;;21.90;99.90;;;;;;4916356;29;20029;-78
2022/09/05 07:39:18;;;;;;;4.85;2.85;;;21.80;99.90;;;;;;4916319;29;20075;-78
2022/09/05 07:41:52;;;;;;;5.07;2.72;;;21.90;99.90;;;;;;4916280;29;20036;-78
2022/09/05 07:44:50;;;;;;;6.25;2.85;;;21.90;99.90;;;;;;4916260;29;20031;-78
2022/09/05 07:47:22;;;;;;;9.00;3.40;;;22.00;99.90;;;;;;4914326;29;20139;-78
2022/09/05 07:49:50;;;;;;;6.53;3.13;;;22.00;99.90;;;;;;4916488;29;20216;-78
2022/09/05 07:52:26;;;;;;;7.88;2.95;;;22.10;99.90;;;;;;4916303;29;20417;-78
2022/09/05 07:54:53;;;;;;;7.68;3.10;;;22.10;99.90;;;;;;4915483;29;20032;-78
2022/09/05 07:57:22;;;;;;;6.03;3.03;;;22.10;99.90;;;;;;4916643;29;20278;-78
2022/09/05 07:59:53;;;;;;;7.95;3.13;;;22.10;99.90;;;;;;4916090;29;20032;-78
2022/09/05 08:02:19;;;;;;;9.60;3.20;;;22.20;99.90;;;;;;4915987;29;20044;-78
2022/09/05 08:04:45;;;;;;;6.65;2.95;;;22.20;99.90;;;;;;4916040;29;20043;-78
2022/09/05 08:07:13;;;;;;;6.15;3.20;;;22.30;99.90;;;;;;4897885;29;20118;-78
2022/09/05 08:10:00;;;;;;;6.15;3.17;;;22.30;99.90;;;;;;4915786;29;20031;-78
2022/09/05 08:12:32;;;;;;;8.50;2.97;;;22.40;99.90;;;;;;4911297;29;20075;-78
2022/09/05 08:15:18;;;;;;;6.95;2.95;;;22.40;99.90;;;;;;4915711;29;20024;-78
2022/09/05 08:18:00;;;;;;;8.15;3.53;;;22.50;99.90;;;;;;4915724;29;20094;-78
2022/09/05 08:20:41;;;;;;;10.63;3.92;;;22.60;99.90;;;;;;4915556;29;20025;-78
2022/09/05 08:23:22;;;;;;;10.10;3.50;;;22.70;99.90;;;;;;4911193;29;20059;-78
2022/09/05 08:26:01;;;;;;;6.75;2.92;;;22.80;99.90;;;;;;4915618;29;20024;-78
2022/09/05 08:28:52;;;;;;;9.43;3.15;;;22.90;99.90;;;;;;4915481;29;20140;-78
2022/09/05 08:31:23;;;;;;;9.57;3.08;;;22.90;99.90;;;;;;4910686;29;20043;-78
2022/09/05 08:33:55;;;;;;;7.70;3.17;;;23.10;99.90;;;;;;4915342;29;20030;-78
2022/09/05 08:36:35;;;;;;;7.45;3.30;;;23.30;99.90;;;;;;4915500;29;20491;-78
2022/09/05 08:39:03;;;;;;;6.45;3.10;;;23.40;99.90;;;;;;4915665;29;20517;-78
2022/09/05 08:41:51;;;;;;;9.63;3.20;;;23.50;99.90;;;;;;4915276;29;20037;-78
2022/09/05 08:44:29;;;;;;;4.53;2.88;;;23.50;99.90;;;;;;4915337;29;20099;-78
2022/09/05 08:47:33;;;;;;;14.75;3.47;;;23.50;99.90;;;;;;4909974;29;20064;-78
2022/09/05 08:50:16;;;;;;;7.00;2.75;;;23.40;99.90;;;;;;4910529;29;20421;-78
2022/09/05 08:52:51;;;;;;;8.60;3.40;;;23.30;99.90;;;;;;4915035;29;20024;-78
2022/09/05 08:55:26;;;;;;;8.70;3.25;;;23.50;99.90;;;;;;4914761;29;20070;-78
2022/09/05 08:58:15;;;;;;;6.20;2.83;;;23.60;99.90;;;;;;4915202;29;20392;-78
2022/09/05 09:00:51;;;;;;;5.30;3.05;;;23.90;99.90;;;;;;4915021;29;20075;-78
2022/09/05 09:03:37;;;;;;;8.85;2.75;;;24.20;99.90;;;;;;4915076;29;20028;-78
2022/09/05 09:06:44;;;;;;;6.68;2.85;;;24.20;99.90;;;;;;4915475;29;20028;-78
2022/09/05 09:09:17;;;;;;;6.47;3.10;;;24.20;99.90;;;;;;4914205;29;20039;-78
2022/09/05 09:12:05;;;;;;;8.60;3.25;;;24.40;99.90;;;;;;4914563;29;20040;-78
2022/09/05 09:14:57;;;;;;;10.38;3.63;;;24.60;99.90;;;;;;4914930;29;20024;-78
2022/09/05 09:17:46;;;;;;;7.88;3.13;;;24.60;99.90;;;;;;4914160;29;20383;-78
2022/09/05 09:20:18;;;;;;;9.52;3.28;;;24.70;99.90;;;;;;4913816;29;20040;-78
2022/09/05 09:22:52;;;;;;;8.70;3.22;;;24.80;99.90;;;;;;4914519;29;20456;-78
2022/09/05 09:25:22;;;;;;;11.13;3.40;;;24.70;99.90;;;;;;4914208;29;20024;-78
2022/09/05 09:28:19;;;;;;;9.40;3.00;;;24.70;99.90;;;;;;4914458;29;20052;-78
2022/09/05 09:30:55;;;;;;;5.32;3.00;;;24.70;99.90;;;;;;4914377;29;20027;-78
2022/09/05 09:33:35;;;;;;;7.30;3.20;;;24.80;99.90;;;;;;4914172;29;20064;-78
2022/09/05 09:36:34;;;;;;;5.13;2.75;;;24.80;99.90;;;;;;4914289;29;20075;-78
2022/09/05 09:39:16;;;;;;;6.32;3.20;;;24.90;99.90;;;;;;4908127;29;20548;-78
2022/09/05 09:42:08;;;;;;;7.97;3.45;;;24.90;99.90;;;;;;4914625;29;20047;-78
2022/09/05 09:44:52;;;;;;;12.23;3.67;;;24.90;99.90;;;;;;4909522;29;20044;-78
2022/09/05 09:47:24;;;;;;;;;;;24.90;99.90;;;;;;4914627;29;20490;-78
2022/09/05 09:50:03;;;;;;;9.25;3.47;;;24.90;99.90;;;;;;4914047;29;19953;-78
2022/09/05 09:52:59;;;;;;;7.22;3.30;;;25.00;99.90;;;;;;4913864;29;20036;-78
2022/09/05 09:55:39;;;;;;;8.70;3.35;;;25.20;99.90;;;;;;4911145;29;20115;-78
2022/09/05 09:58:14;;;;;;;6.70;3.22;;;25.20;99.90;;;;;;4912995;29;20034;-78
2022/09/05 10:01:05;;;;;;;5.35;3.13;;;25.30;99.90;;;;;;4913798;29;20040;-78
2022/09/05 10:03:38;;;;;;;5.18;3.08;;;25.30;99.90;;;;;;4913830;29;20027;-78
2022/09/05 10:06:49;;;;;;;9.55;3.25;;;25.40;99.90;;;;;;4913949;29;20036;-78
2022/09/05 10:09:56;;;;;;;9.45;4.00;;;25.60;99.90;;;;;;4874507;29;20078;-78
2022/09/05 10:12:25;;;;;;;7.10;3.75;;;25.60;99.90;;;;;;4877417;29;20040;-77
2022/09/05 10:15:29;;;;;;;7.50;3.58;;;25.70;99.90;;;;;;4913290;29;20035;-78
2022/09/05 10:18:21;;;;;;;11.97;3.63;;;25.90;99.90;;;;;;4913022;29;20028;-77
2022/09/05 10:21:15;;;;;;;8.95;3.20;;;25.80;99.90;;;;;;4913562;29;20020;-77
2022/09/05 10:23:58;;;;;;;5.95;2.95;;;25.80;99.90;;;;;;4871263;29;20047;-77
2022/09/05 10:27:02;;;;;;;9.65;3.30;;;25.90;99.90;;;;;;4908855;29;20040;-77
2022/09/05 10:29:33;;;;;;;8.02;3.08;;;25.90;99.90;;;;;;4877150;29;20457;-77
2022/09/05 10:32:04;;;;;;;9.80;3.85;;;25.60;99.90;;;;;;4913367;29;20024;-78
2022/09/05 10:34:46;;;;;;;11.55;3.60;;;25.40;99.90;;;;;;4907847;29;20111;-78
2022/09/05 10:37:13;;;;;;;11.55;3.35;;;25.40;99.90;;;;;;4913454;29;20020;-77
2022/09/05 10:39:44;;;;;;;11.05;3.20;;;25.60;99.90;;;;;;4913458;29;20028;-76
2022/09/05 10:42:14;;;;;;;9.43;3.92;;;25.50;99.90;;;;;;4913177;29;20043;-79
2022/09/05 10:44:50;;;;;;;11.55;4.10;;;25.70;99.90;;;;;;4913965;29;20019;-78
2022/09/05 10:47:25;;;;;;;8.77;4.43;;;25.60;99.90;;;;;;4913273;29;20036;-83
2022/09/05 10:50:02;;;;;;;10.05;3.75;;;25.50;99.90;;;;;;4913426;29;20022;-83
2022/09/05 10:52:35;;;;;;;12.15;3.85;;;25.50;99.90;;;;;;4912944;29;20075;-83
2022/09/05 10:55:20;;;;;;;12.82;3.40;;;25.70;99.90;;;;;;4907300;29;20028;-83
2022/09/05 10:58:31;;;;;;;15.25;3.40;;;26.00;99.90;;;;;;4910874;29;20032;-83
2022/09/05 11:01:15;;;;;;;9.75;3.45;;;26.50;99.90;;;;;;4908594;29;20043;-83
2022/09/05 11:03:51;;;;;;;9.88;3.38;;;26.40;99.90;;;;;;4910891;29;20121;-83
2022/09/05 11:06:24;;;;;;;11.13;3.10;;;26.60;99.90;;;;;;4913307;29;20561;-83
2022/09/05 11:09:11;;;;;;;11.65;3.58;;;26.90;99.90;;;;;;4914812;29;20020;-83
2022/09/05 11:11:44;;;;;;;17.38;4.05;;;26.70;99.90;;;;;;4917273;29;20388;-83
2022/09/05 11:14:42;;;;;;;9.43;3.77;;;26.50;99.90;;;;;;4916795;29;20012;-83
2022/09/05 11:17:18;;;;;;;13.85;3.60;;;26.40;99.90;;;;;;4916422;29;20515;-83
2022/09/05 11:19:52;;;;;;;11.65;3.78;;;26.80;99.90;;;;;;4911214;29;20099;-82
2022/09/05 11:22:23;;;;;;;12.23;3.85;;;27.10;99.90;;;;;;4916698;29;20037;-83
2022/09/05 11:24:58;;;;;;;10.63;3.40;;;27.00;99.90;;;;;;4916877;29;20028;-83
2022/09/05 11:27:42;;;;;;;13.60;3.55;;;27.10;99.90;;;;;;4916285;29;20048;-83
2022/09/05 11:30:22;;;;;;;13.73;3.60;;;27.60;99.90;;;;;;4916726;29;20031;-83
2022/09/05 11:33:23;;;;;;;14.02;3.97;;;27.70;99.90;;;;;;4916546;29;20032;-82
2022/09/05 11:36:01;;;;;;;12.77;4.15;;;27.50;99.90;;;;;;4820399;29;20117;-83
2022/09/05 11:38:50;;;;;;;11.90;3.80;;;27.50;99.90;;;;;;4904050;29;20048;-83
2022/09/05 11:41:27;;;;;;;13.85;3.78;;;27.50;99.90;;;;;;4916225;29;20040;-83
2022/09/05 11:43:56;;;;;;;11.43;3.75;;;27.50;99.90;;;;;;4916527;29;20060;-83
2022/09/05 11:46:54;;;;;;;14.30;3.88;;;27.30;99.90;;;;;;4916349;29;20111;-83
2022/09/05 11:49:30;;;;;;;14.80;4.30;;;27.40;99.90;;;;;;4829670;29;20117;-83
2022/09/05 11:52:20;;;;;;;13.98;3.95;;;27.50;99.90;;;;;;4916327;29;20020;-83
2022/09/05 11:54:46;;;;;;;10.50;3.63;;;27.30;99.90;;;;;;4914173;29;20040;-83
2022/09/05 11:57:18;;;;;;;8.50;3.20;;;27.20;99.90;;;;;;4916036;29;20080;-83
2022/09/05 12:00:09;;;;;;;16.75;4.38;;;27.20;99.90;;;;;;4915987;29;20457;-83
2022/09/05 12:02:51;;;;;;;11.73;3.58;;;27.10;99.90;;;;;;4911461;29;20064;-83
2022/09/05 12:05:54;;;;;;;13.45;3.90;;;27.00;99.90;;;;;;4894637;29;20032;-83
2022/09/05 12:08:30;;;;;;;14.35;3.40;;;27.00;99.90;;;;;;4916021;29;20164;-83
2022/09/05 12:11:31;;;;;;;12.52;3.95;;;26.80;99.90;;;;;;4915955;29;20032;-83
2022/09/05 12:14:11;;;;;;;8.57;3.22;;;26.80;99.90;;;;;;4915889;29;20024;-83
2022/09/05 12:17:02;;;;;;;9.70;3.97;;;27.10;99.90;;;;;;4911111;29;20106;-83
2022/09/05 12:19:33;;;;;;;13.10;4.05;;;27.30;99.90;;;;;;4915407;29;20048;-83
2022/09/05 12:22:21;;;;;;;11.57;3.58;;;27.50;99.90;;;;;;4915481;29;20119;-83
2022/09/05 12:25:12;;;;;;;10.73;3.50;;;27.90;99.90;;;;;;4875841;29;20045;-83
2022/09/05 12:27:38;;;;;;;7.95;3.00;;;27.90;99.90;;;;;;4915502;29;20056;-83
2022/09/05 12:30:12;;;;;;;9.13;3.15;;;28.30;99.90;;;;;;4915729;29;20595;-83
2022/09/05 12:32:53;;;;;;;13.20;3.30;;;28.40;99.90;;;;;;4915698;29;20024;-83
2022/09/05 12:35:36;;;;;;;10.35;3.50;;;28.30;99.90;;;;;;4910319;29;20020;-83
2022/09/05 12:38:12;;;;;;;10.35;2.90;;;28.40;99.90;;;;;;4911759;29;20388;-83
2022/09/05 12:40:45;;;;;;;13.98;3.15;;;28.60;99.90;;;;;;4915124;29;20118;-83
2022/09/05 12:43:11;;;;;;;13.55;2.88;;;28.70;99.90;;;;;;4915461;29;20035;-83
2022/09/05 12:45:50;;;;;;;10.85;3.50;;;28.80;99.90;;;;;;4915495;29;20393;-83
2022/09/05 12:48:28;;;;;;;8.32;2.38;;;28.90;98.40;;;;;;4915219;29;20024;-83
2022/09/05 12:50:56;;;;;;;7.72;2.50;;;28.60;98.40;;;;;;4915638;29;20172;-83
2022/09/05 12:53:33;;;;;;;7.97;2.45;;;28.70;98.10;;;;;;4915320;29;20083;-83
2022/09/05 12:56:17;;;;;;;6.68;2.75;;;28.60;97.30;;;;;;4914772;29;20040;-83
2022/09/05 12:58:47;;;;;;;6.32;2.35;;;28.60;97.10;;;;;;4911794;29;20120;-83
2022/09/05 13:01:15;;;;;;;10.00;2.72;;;28.50;97.50;;;;;;4914884;29;20051;-83
2022/09/05 13:04:21;;;;;;;10.05;2.47;;;28.60;96.70;;;;;;4914988;29;20035;-83
2022/09/05 13:06:59;;;;;;;5.85;2.25;;;28.60;95.80;;;;;;4914911;29;20032;-83
2022/09/05 13:09:31;;;;;;;6.20;2.15;;;28.60;96.70;;;;;;4914955;29;20036;-83
2022/09/05 13:12:06;;;;;;;6.68;2.53;;;28.50;96.70;;;;;;4915191;29;20077;-83
2022/09/05 13:14:56;;;;;;;5.63;2.55;;;28.60;97.10;;;;;;4914743;29;20097;-83
2022/09/05 13:17:47;;;;;;;7.50;2.28;;;28.90;97.30;;;;;;4914638;29;20028;-83
2022/09/05 13:20:19;;;;;;;8.90;2.45;;;28.90;97.60;;;;;;4913703;29;20425;-83
2022/09/05 13:22:48;;;;;;;7.95;2.53;;;28.90;97.00;;;;;;4915066;29;20053;-83
2022/09/05 13:25:22;;;;;;;8.52;2.38;;;28.90;96.40;;;;;;4914432;29;20040;-83
2022/09/05 13:27:55;;;;;;;;;;;29.10;94.70;;;;;;4914944;29;20133;-83
2022/09/05 13:30:26;;;;;;;4.80;2.10;;;29.10;94.70;;;;;;4914476;29;19913;-83
2022/09/05 13:32:59;;;;;;;7.05;2.42;;;29.00;94.50;;;;;;4914656;29;20036;-83
2022/09/05 13:35:35;;;;;;;8.23;2.50;;;28.70;94.80;;;;;;4897557;29;20461;-83
2022/09/05 13:38:13;;;;;;;8.98;2.38;;;28.80;95.40;;;;;;4897119;29;20356;-83
2022/09/05 13:40:56;;;;;;;8.38;2.42;;;28.90;95.50;;;;;;4913963;29;20032;-83
2022/09/05 13:43:26;;;;;;;6.83;2.50;;;28.80;95.60;;;;;;4914394;29;20075;-83
2022/09/05 13:46:18;;;;;;;9.02;2.47;;;28.70;95.80;;;;;;4914389;29;20024;-83
2022/09/05 13:48:59;;;;;;;8.85;2.60;;;28.70;96.40;;;;;;4910533;29;20101;-83
2022/09/05 13:51:32;;;;;;;6.88;3.00;;;29.00;96.80;;;;;;4914117;29;20051;-85
2022/09/05 13:54:15;;;;;;;6.80;2.58;;;29.20;96.60;;;;;;4914126;29;20092;-85
2022/09/05 13:57:00;;;;;;;6.15;2.50;;;29.20;96.80;;;;;;4914045;29;20048;-86
2022/09/05 13:59:27;;;;;;;6.72;2.78;;;29.60;96.50;;;;;;4913734;29;20457;-85
2022/09/05 14:02:05;;;;;;;9.20;2.55;;;29.40;96.70;;;;;;4913867;29;20082;-85